Time;durP1;ratioP1;P1;durP2;ratioP2;P2;SDS_P1;SDS_P2;PMS_P1;PMS_P2;Temp;Humidity;BMP_temperature;BMP_pressure;BME280_temperature;BME280_humidity;BME280_pressure;Samples;Min_cycle;Max_cycle;Signal;HPM_P1;HPM_P2
2023/07/09 00:02:12;;;;;;;;;;;23.00;99.90;;;;;;5013266;28;20021;-46
2023/07/09 00:04:38;;;;;;;8.77;4.68;;;23.00;99.90;;;;;;5012328;28;19912;-54
2023/07/09 00:07:04;;;;;;;9.27;3.97;;;22.90;99.90;;;;;;5012203;28;20029;-47
2023/07/09 00:09:30;;;;;;;8.23;4.07;;;22.90;99.90;;;;;;5012482;28;20021;-47
2023/07/09 00:11:56;;;;;;;6.25;3.75;;;22.80;99.90;;;;;;5012574;28;20033;-50
2023/07/09 00:14:21;;;;;;;7.90;3.50;;;22.80;99.90;;;;;;5012817;28;20575;-50
2023/07/09 00:16:48;;;;;;;5.60;3.53;;;22.80;99.90;;;;;;5011808;28;20072;-47
2023/07/09 00:19:16;;;;;;;4.70;3.45;;;22.80;99.90;;;;;;5012205;28;20057;-46
2023/07/09 00:21:44;;;;;;;10.90;3.05;;;22.70;99.90;;;;;;5012112;28;20033;-46
2023/07/09 00:24:13;;;;;;;4.15;3.03;;;22.70;99.90;;;;;;5011785;28;20485;-48
2023/07/09 00:26:40;;;;;;;5.70;3.53;;;22.60;99.90;;;;;;5011100;28;20409;-48
2023/07/09 00:29:10;;;;;;;7.63;3.25;;;22.60;99.90;;;;;;5012034;28;20042;-46
2023/07/09 00:31:40;;;;;;;5.13;3.20;;;22.60;99.90;;;;;;5012399;28;20093;-45
2023/07/09 00:34:11;;;;;;;6.00;3.20;;;22.60;99.90;;;;;;5011595;28;20110;-46
2023/07/09 00:36:37;;;;;;;6.18;3.35;;;22.50;99.90;;;;;;5010005;28;20026;-46
2023/07/09 00:39:07;;;;;;;4.53;3.00;;;22.40;99.90;;;;;;5010835;28;20095;-47
2023/07/09 00:41:36;;;;;;;8.43;3.22;;;22.40;99.90;;;;;;5011892;28;20639;-45
2023/07/09 00:44:24;;;;;;;6.07;3.47;;;22.40;99.90;;;;;;5011167;28;20405;-44
2023/07/09 00:46:49;;;;;;;4.75;3.10;;;22.30;99.90;;;;;;5011128;28;20449;-51
2023/07/09 00:49:30;;;;;;;4.80;3.40;;;22.40;99.90;;;;;;5011853;28;20053;-45
2023/07/09 00:52:01;;;;;;;9.18;3.17;;;22.30;99.90;;;;;;5011721;28;20453;-51
2023/07/09 00:54:39;;;;;;;5.45;2.90;;;22.20;99.90;;;;;;5011994;28;20036;-47
2023/07/09 00:57:18;;;;;;;4.80;3.17;;;22.10;99.90;;;;;;5011131;28;20029;-47
2023/07/09 00:59:48;;;;;;;8.80;3.40;;;22.10;99.90;;;;;;5011660;28;20501;-46
2023/07/09 01:02:14;;;;;;;10.10;3.38;;;22.10;99.90;;;;;;5011560;28;20157;-48
2023/07/09 01:04:40;;;;;;;5.65;3.63;;;22.10;99.90;;;;;;5011778;28;20022;-48
2023/07/09 01:07:06;;;;;;;8.88;3.63;;;22.10;99.90;;;;;;5011033;28;20053;-46
2023/07/09 01:09:35;;;;;;;6.65;3.50;;;22.20;99.90;;;;;;5011550;28;20026;-45
2023/07/09 01:12:04;;;;;;;8.32;3.25;;;22.10;99.90;;;;;;5013822;28;20033;-48
2023/07/09 01:14:31;;;;;;;7.47;3.13;;;22.10;99.90;;;;;;5015213;28;20486;-47
2023/07/09 01:17:01;;;;;;;8.27;3.85;;;22.10;99.90;;;;;;5014777;28;20041;-50
2023/07/09 01:19:30;;;;;;;4.47;3.05;;;22.10;99.90;;;;;;5015424;28;20022;-47
2023/07/09 01:21:58;;;;;;;5.80;3.22;;;22.10;99.90;;;;;;5015385;28;20029;-46
2023/07/09 01:24:48;;;;;;;6.30;3.10;;;22.10;99.90;;;;;;5015016;28;20021;-46
2023/07/09 01:27:16;;;;;;;6.20;3.33;;;22.00;99.90;;;;;;5014593;28;20032;-47
2023/07/09 01:29:42;;;;;;;4.43;3.20;;;22.00;99.90;;;;;;5015391;28;20072;-49
2023/07/09 01:32:09;;;;;;;4.40;3.22;;;22.00;99.90;;;;;;5015296;28;20133;-46
2023/07/09 01:34:35;;;;;;;9.70;3.65;;;22.00;99.90;;;;;;5015419;28;20033;-47
2023/07/09 01:37:00;;;;;;;5.85;3.38;;;22.00;99.90;;;;;;5014430;28;20022;-50
2023/07/09 01:39:28;;;;;;;6.40;3.35;;;21.90;99.90;;;;;;5014140;28;20466;-49
2023/07/09 01:41:54;;;;;;;12.98;4.85;;;21.90;99.90;;;;;;5014962;28;20115;-49
2023/07/09 01:44:19;;;;;;;5.00;4.00;;;21.90;99.90;;;;;;5015102;28;20076;-50
2023/07/09 01:46:45;;;;;;;5.45;3.60;;;21.80;99.90;;;;;;5013168;28;20478;-47
2023/07/09 01:49:11;;;;;;;10.02;4.15;;;21.70;99.90;;;;;;5014843;28;20022;-47
2023/07/09 01:51:37;;;;;;;4.68;3.58;;;21.60;99.90;;;;;;5014792;28;20544;-51
2023/07/09 01:54:03;;;;;;;7.25;3.72;;;21.50;99.90;;;;;;5014435;28;20018;-49
2023/07/09 01:56:29;;;;;;;9.45;4.22;;;21.50;99.90;;;;;;5013983;28;20045;-51
2023/07/09 01:59:01;;;;;;;6.75;3.53;;;21.50;99.90;;;;;;5014537;28;20564;-48
2023/07/09 02:01:33;;;;;;;6.15;3.60;;;21.50;99.90;;;;;;5014523;28;20072;-50
2023/07/09 02:03:59;;;;;;;11.88;3.35;;;21.40;99.90;;;;;;5014355;28;20072;-49
2023/07/09 02:06:24;;;;;;;9.05;3.63;;;21.40;99.90;;;;;;5013671;28;20030;-50
2023/07/09 02:08:50;;;;;;;6.47;3.65;;;21.30;99.90;;;;;;5014428;28;20068;-49
2023/07/09 02:11:15;;;;;;;10.32;3.50;;;21.30;99.90;;;;;;5014375;28;20441;-46
2023/07/09 02:13:41;;;;;;;6.40;3.90;;;21.30;99.90;;;;;;5013929;28;20036;-51
2023/07/09 02:16:06;;;;;;;7.05;3.90;;;21.20;99.90;;;;;;5013552;28;20026;-45
2023/07/09 02:18:32;;;;;;;10.20;3.83;;;21.10;99.90;;;;;;5014349;28;20218;-50
2023/07/09 02:20:57;;;;;;;8.57;4.00;;;21.20;99.90;;;;;;5014419;28;20052;-48
2023/07/09 02:23:29;;;;;;;10.63;4.00;;;21.10;99.90;;;;;;5011689;28;20033;-49
2023/07/09 02:25:55;;;;;;;8.65;4.07;;;21.00;99.90;;;;;;5013530;28;20037;-42
2023/07/09 02:28:20;;;;;;;5.60;4.05;;;20.90;99.90;;;;;;5014036;28;20030;-46
2023/07/09 02:30:46;;;;;;;8.35;4.35;;;20.90;99.90;;;;;;5014080;28;20474;-46
2023/07/09 02:33:11;;;;;;;12.18;4.25;;;20.80;99.90;;;;;;5013788;28;20033;-49
2023/07/09 02:35:37;;;;;;;12.55;4.72;;;20.80;99.90;;;;;;5013461;28;20026;-45
2023/07/09 02:38:03;;;;;;;6.63;4.13;;;20.70;99.90;;;;;;5012567;28;20367;-46
2023/07/09 02:40:29;;;;;;;14.70;4.20;;;20.80;99.90;;;;;;5014000;28;20026;-47
2023/07/09 02:42:54;;;;;;;5.10;3.45;;;20.80;99.90;;;;;;5013757;28;20041;-46
2023/07/09 02:45:20;;;;;;;8.02;4.65;;;20.80;99.90;;;;;;5013512;28;20037;-46
2023/07/09 02:47:46;;;;;;;4.93;3.50;;;20.70;99.90;;;;;;5013507;28;20030;-49
2023/07/09 02:50:12;;;;;;;6.75;4.20;;;20.70;99.90;;;;;;5013598;28;20374;-46
2023/07/09 02:52:38;;;;;;;4.50;4.03;;;20.80;99.90;;;;;;5013741;28;20318;-44
2023/07/09 02:55:03;;;;;;;5.57;4.15;;;20.80;99.90;;;;;;5013641;28;20100;-46
2023/07/09 02:57:29;;;;;;;4.35;3.83;;;20.80;99.90;;;;;;5013101;28;20034;-45
2023/07/09 02:59:54;;;;;;;5.97;3.85;;;20.80;99.90;;;;;;5013653;28;20494;-46
2023/07/09 03:02:20;;;;;;;4.72;3.67;;;20.80;99.90;;;;;;5013499;28;20087;-46
2023/07/09 03:04:46;;;;;;;8.75;4.00;;;20.80;99.90;;;;;;5013289;28;20469;-46
2023/07/09 03:07:11;;;;;;;6.68;3.55;;;20.80;99.90;;;;;;5012556;28;20044;-46
2023/07/09 03:09:37;;;;;;;7.18;3.45;;;20.80;99.90;;;;;;5013237;28;20100;-48
2023/07/09 03:12:03;;;;;;;10.02;3.95;;;20.80;99.90;;;;;;5013337;28;20061;-47
2023/07/09 03:14:28;;;;;;;6.15;3.95;;;20.70;99.90;;;;;;5011786;28;20030;-48
2023/07/09 03:16:55;;;;;;;6.78;3.83;;;20.70;99.90;;;;;;5012337;28;20401;-51
2023/07/09 03:19:22;;;;;;;8.30;3.50;;;20.80;99.90;;;;;;5013087;28;20022;-45
2023/07/09 03:21:47;;;;;;;7.15;3.50;;;20.80;99.90;;;;;;5013385;28;20038;-50
2023/07/09 03:24:15;;;;;;;12.00;3.92;;;20.80;99.90;;;;;;5012993;28;20040;-47
2023/07/09 03:26:40;;;;;;;6.32;3.67;;;20.80;99.90;;;;;;5012298;28;20044;-48
2023/07/09 03:29:06;;;;;;;6.20;3.78;;;20.80;99.90;;;;;;5013026;28;20029;-49
2023/07/09 03:31:34;;;;;;;8.00;3.97;;;20.80;99.90;;;;;;5012990;28;20490;-47
2023/07/09 03:34:00;;;;;;;6.35;3.75;;;20.70;99.90;;;;;;5012299;28;20109;-46
2023/07/09 03:36:25;;;;;;;8.55;3.47;;;20.70;99.90;;;;;;5012311;28;20105;-47
2023/07/09 03:38:51;;;;;;;7.75;4.72;;;20.70;99.90;;;;;;5011850;28;20018;-48
2023/07/09 03:41:17;;;;;;;6.18;3.90;;;20.70;99.90;;;;;;5012876;28;20131;-46
2023/07/09 03:43:43;;;;;;;5.78;3.97;;;20.60;99.90;;;;;;5012612;28;20022;-46
2023/07/09 03:46:08;;;;;;;7.70;4.25;;;20.60;99.90;;;;;;5012005;28;20029;-48
2023/07/09 03:48:34;;;;;;;6.72;3.47;;;20.50;99.90;;;;;;5012642;28;20084;-46
2023/07/09 03:50:59;;;;;;;4.88;3.75;;;20.50;99.90;;;;;;5012617;28;20068;-45
2023/07/09 03:53:25;;;;;;;10.45;4.00;;;20.50;99.90;;;;;;5012492;28;20121;-47
2023/07/09 03:55:55;;;;;;;7.97;3.40;;;20.50;99.90;;;;;;5011875;28;20100;-46
2023/07/09 03:58:21;;;;;;;4.40;3.58;;;20.60;99.90;;;;;;5012493;28;20029;-50
2023/07/09 04:00:46;;;;;;;7.57;3.75;;;20.70;99.90;;;;;;5012517;28;20100;-46
2023/07/09 04:03:12;;;;;;;4.70;3.25;;;20.70;99.90;;;;;;5013692;28;20397;-47
2023/07/09 04:05:37;;;;;;;4.32;3.67;;;20.70;99.90;;;;;;5012210;28;20458;-47
2023/07/09 04:08:04;;;;;;;5.18;3.83;;;20.70;99.90;;;;;;5010908;28;20030;-51
2023/07/09 04:10:31;;;;;;;5.93;4.40;;;20.60;99.90;;;;;;5012367;28;20101;-49
2023/07/09 04:12:56;;;;;;;7.30;4.35;;;20.60;99.90;;;;;;5012122;28;20083;-47
2023/07/09 04:15:22;;;;;;;11.40;5.40;;;20.50;99.90;;;;;;5010554;28;20432;-47
2023/07/09 04:17:47;;;;;;;10.18;4.72;;;20.50;99.90;;;;;;5011864;28;20026;-51
2023/07/09 04:20:13;;;;;;;7.88;5.18;;;20.60;99.90;;;;;;5012111;28;20513;-49
2023/07/09 04:22:39;;;;;;;8.85;4.22;;;20.60;99.90;;;;;;5012431;28;20017;-48
2023/07/09 04:25:09;;;;;;;11.75;4.88;;;20.70;99.90;;;;;;5011958;28;20026;-46
2023/07/09 04:27:35;;;;;;;9.88;4.78;;;20.80;99.90;;;;;;5011236;28;20036;-49
2023/07/09 04:30:01;;;;;;;7.53;5.13;;;20.80;99.90;;;;;;5012115;28;20022;-47
2023/07/09 04:32:26;;;;;;;8.55;5.40;;;20.90;99.90;;;;;;5011892;28;20025;-45
2023/07/09 04:34:53;;;;;;;16.73;5.45;;;20.90;99.90;;;;;;5011825;28;20030;-49
2023/07/09 04:37:19;;;;;;;8.85;5.22;;;21.00;99.90;;;;;;5011593;28;20029;-49
2023/07/09 04:39:45;;;;;;;8.55;4.82;;;21.10;99.90;;;;;;5010766;28;20430;-50
2023/07/09 04:42:12;;;;;;;14.73;4.88;;;21.20;99.90;;;;;;5011836;28;20046;-50
2023/07/09 04:44:38;;;;;;;10.07;5.28;;;21.30;99.90;;;;;;5011892;28;20359;-46
2023/07/09 04:47:04;;;;;;;9.68;5.25;;;21.40;99.90;;;;;;5010454;28;20084;-48
2023/07/09 04:49:30;;;;;;;10.27;5.10;;;21.50;99.90;;;;;;5012167;28;20389;-45
2023/07/09 04:51:56;;;;;;;11.25;6.25;;;21.60;99.90;;;;;;5011707;28;20025;-48
2023/07/09 04:54:22;;;;;;;7.15;5.32;;;21.70;99.90;;;;;;5011501;28;20441;-51
2023/07/09 04:56:48;;;;;;;10.32;5.22;;;21.90;99.90;;;;;;5011021;28;20490;-47
2023/07/09 04:59:14;;;;;;;9.38;4.90;;;22.10;99.90;;;;;;5011658;28;20033;-47
2023/07/09 05:01:39;;;;;;;9.65;5.40;;;22.30;99.90;;;;;;5011690;28;20033;-46
2023/07/09 05:04:05;;;;;;;9.38;5.63;;;22.50;99.90;;;;;;5011578;28;20109;-48
2023/07/09 05:06:30;;;;;;;9.05;4.38;;;22.90;99.90;;;;;;5010963;28;20394;-47
2023/07/09 05:08:56;;;;;;;9.73;5.25;;;23.40;99.90;;;;;;5011584;28;20026;-46
2023/07/09 05:11:21;;;;;;;10.95;5.60;;;23.90;99.90;;;;;;5011591;28;20040;-50
2023/07/09 05:13:47;;;;;;;9.30;5.35;;;24.60;99.90;;;;;;5012290;28;20383;-46
2023/07/09 05:16:12;;;;;;;6.55;4.80;;;25.30;99.90;;;;;;5011009;28;20029;-46
2023/07/09 05:18:38;;;;;;;14.63;5.10;;;25.90;99.90;;;;;;5011655;28;20490;-44
2023/07/09 05:21:04;;;;;;;9.55;4.50;;;26.50;99.90;;;;;;5011539;28;20026;-51
2023/07/09 05:23:29;;;;;;;8.13;4.60;;;27.10;99.90;;;;;;5011302;28;20101;-46
2023/07/09 05:25:59;;;;;;;8.52;4.72;;;27.50;99.60;;;;;;5010817;28;20397;-46
2023/07/09 05:28:25;;;;;;;9.38;4.18;;;27.90;98.80;;;;;;5011549;28;20088;-52
2023/07/09 05:30:50;;;;;;;10.27;4.15;;;28.60;97.70;;;;;;5012114;28;20022;-43
2023/07/09 05:33:18;;;;;;;7.05;4.15;;;29.10;96.70;;;;;;5011246;28;20022;-50
2023/07/09 05:35:44;;;;;;;5.78;4.00;;;29.10;96.20;;;;;;5010703;28;20388;-44
2023/07/09 05:38:10;;;;;;;6.00;4.05;;;29.50;95.50;;;;;;5010357;28;20399;-46
2023/07/09 05:40:36;;;;;;;8.63;4.05;;;29.60;95.20;;;;;;5011289;28;20026;-46
2023/07/09 05:43:01;;;;;;;7.00;4.32;;;29.80;94.90;;;;;;5011169;28;20041;-46
2023/07/09 05:45:27;;;;;;;5.75;4.18;;;30.60;94.00;;;;;;5010497;28;20093;-48
2023/07/09 05:47:52;;;;;;;7.88;4.63;;;30.90;93.30;;;;;;5010951;28;20108;-45
2023/07/09 05:50:18;;;;;;;5.38;4.07;;;31.20;93.00;;;;;;5011219;28;20064;-45
2023/07/09 05:52:43;;;;;;;10.80;4.57;;;31.80;92.10;;;;;;5010000;28;20026;-48
2023/07/09 05:55:09;;;;;;;8.98;4.20;;;31.90;91.50;;;;;;5011294;28;20034;-45
2023/07/09 05:57:34;;;;;;;8.63;4.55;;;31.90;91.40;;;;;;5012775;28;20252;-46
2023/07/09 06:00:00;;;;;;;6.20;3.70;;;32.30;90.70;;;;;;5014755;28;20103;-46
2023/07/09 06:02:25;;;;;;;6.78;4.63;;;32.40;89.80;;;;;;5014691;28;20038;-48
2023/07/09 06:04:51;;;;;;;6.60;4.32;;;31.90;89.60;;;;;;5014539;28;20061;-48
2023/07/09 06:07:18;;;;;;;10.30;4.57;;;32.50;90.00;;;;;;5013974;28;20025;-45
2023/07/09 06:09:45;;;;;;;8.10;4.38;;;32.90;89.00;;;;;;5013485;28;20022;-43
2023/07/09 06:12:12;;;;;;;6.38;3.83;;;33.60;87.00;;;;;;5014769;28;20474;-50
2023/07/09 06:14:38;;;;;;;6.32;4.22;;;33.80;86.50;;;;;;5015274;28;20128;-51
2023/07/09 06:17:03;;;;;;;9.98;4.93;;;33.90;85.90;;;;;;5013998;28;20100;-49
2023/07/09 06:19:29;;;;;;;6.88;3.92;;;33.90;84.70;;;;;;5014700;28;20037;-48
2023/07/09 06:21:55;;;;;;;4.90;4.25;;;34.50;83.20;;;;;;5014688;28;20116;-47
2023/07/09 06:24:21;;;;;;;6.10;4.47;;;34.60;82.60;;;;;;5014899;28;20033;-46
2023/07/09 06:26:47;;;;;;;8.98;3.88;;;34.40;81.90;;;;;;5012464;28;20025;-51
2023/07/09 06:29:12;;;;;;;5.45;3.50;;;33.40;82.60;;;;;;5014243;28;20037;-52
2023/07/09 06:31:40;;;;;;;7.95;3.88;;;32.80;84.30;;;;;;5014231;28;20030;-48
2023/07/09 06:34:07;;;;;;;6.45;3.72;;;33.20;84.20;;;;;;5013847;28;20045;-46
2023/07/09 06:36:33;;;;;;;6.80;3.55;;;33.40;83.30;;;;;;5013442;28;20026;-50
2023/07/09 06:38:59;;;;;;;7.65;4.10;;;33.80;82.10;;;;;;5011730;28;20124;-51
2023/07/09 06:41:24;;;;;;;6.38;3.75;;;33.90;82.30;;;;;;5013959;28;20447;-50
2023/07/09 06:43:50;;;;;;;7.13;4.15;;;33.80;82.20;;;;;;5013682;28;20021;-50
2023/07/09 06:46:19;;;;;;;7.65;3.60;;;34.50;81.80;;;;;;5013039;28;20022;-48
2023/07/09 06:48:45;;;;;;;7.75;4.07;;;35.30;80.20;;;;;;5013772;28;20489;-48
2023/07/09 06:51:11;;;;;;;7.50;4.20;;;36.00;79.30;;;;;;5013815;28;20026;-52
2023/07/09 06:53:36;;;;;;;8.77;3.90;;;36.20;78.40;;;;;;5013588;28;20049;-49
2023/07/09 06:56:02;;;;;;;5.82;3.25;;;36.40;77.20;;;;;;5013071;28;20512;-49
2023/07/09 06:58:31;;;;;;;11.07;4.05;;;35.50;77.30;;;;;;5013493;28;20075;-50
2023/07/09 07:00:57;;;;;;;4.95;3.17;;;34.90;78.00;;;;;;5013622;28;20490;-51
2023/07/09 07:03:23;;;;;;;6.03;3.47;;;35.40;78.30;;;;;;5013807;28;20468;-49
2023/07/09 07:05:53;;;;;;;6.78;3.97;;;35.90;77.60;;;;;;5012655;28;20510;-48
2023/07/09 07:08:22;;;;;;;7.55;4.07;;;36.20;76.50;;;;;;5012708;28;20022;-50
2023/07/09 07:10:49;;;;;;;9.05;3.63;;;36.90;75.00;;;;;;5013464;28;20022;-51
2023/07/09 07:13:14;;;;;;;7.03;3.13;;;37.20;74.20;;;;;;5012942;28;20049;-51
2023/07/09 07:15:40;;;;;;;11.80;4.15;;;37.50;73.60;;;;;;5012816;28;20026;-49
2023/07/09 07:18:07;;;;;;;5.07;3.55;;;38.10;71.60;;;;;;5012955;28;20030;-47
2023/07/09 07:20:32;;;;;;;5.65;3.50;;;37.70;69.60;;;;;;5013125;28;20416;-48
2023/07/09 07:22:58;;;;;;;4.93;3.65;;;37.90;69.70;;;;;;5013178;28;20048;-49
2023/07/09 07:25:24;;;;;;;7.65;4.30;;;38.10;69.20;;;;;;5012862;28;20642;-48
2023/07/09 07:27:50;;;;;;;8.18;3.70;;;38.30;68.60;;;;;;5011304;28;20026;-49
2023/07/09 07:30:16;;;;;;;9.35;3.95;;;38.30;68.50;;;;;;5013086;28;20481;-49
2023/07/09 07:32:46;;;;;;;10.63;4.10;;;38.40;69.30;;;;;;5012932;28;20084;-50
2023/07/09 07:35:13;;;;;;;8.05;3.95;;;38.40;68.20;;;;;;5012962;28;20029;-51
2023/07/09 07:37:39;;;;;;;9.85;3.63;;;38.70;67.70;;;;;;5011327;28;20022;-48
2023/07/09 07:40:05;;;;;;;6.70;3.85;;;38.40;67.40;;;;;;5012764;28;20371;-49
2023/07/09 07:42:30;;;;;;;6.45;3.60;;;38.50;67.60;;;;;;5012645;28;20030;-46
2023/07/09 07:44:56;;;;;;;7.72;3.97;;;38.70;67.20;;;;;;5012821;28;20133;-51
2023/07/09 07:47:22;;;;;;;5.65;3.92;;;38.40;67.00;;;;;;5011988;28;20113;-52
2023/07/09 07:49:47;;;;;;;6.28;3.90;;;38.70;66.80;;;;;;5012721;28;20025;-51
2023/07/09 07:52:13;;;;;;;4.72;3.83;;;38.90;65.90;;;;;;5012450;28;20041;-45
2023/07/09 07:54:39;;;;;;;12.40;3.92;;;38.90;65.90;;;;;;5012820;28;20025;-50
2023/07/09 07:57:05;;;;;;;7.40;4.28;;;39.30;65.50;;;;;;5012668;28;20030;-52
2023/07/09 07:59:34;;;;;;;10.13;4.45;;;39.60;64.30;;;;;;5012665;28;20033;-50
2023/07/09 08:02:00;;;;;;;7.10;4.05;;;39.50;64.10;;;;;;5012489;28;20018;-51
2023/07/09 08:04:25;;;;;;;5.30;3.72;;;39.90;64.30;;;;;;5012341;28;20200;-47
2023/07/09 08:06:52;;;;;;;9.88;4.13;;;40.00;63.90;;;;;;5011629;28;20211;-48
2023/07/09 08:09:17;;;;;;;5.93;3.58;;;40.30;63.50;;;;;;5012544;28;20102;-49
2023/07/09 08:11:43;;;;;;;12.35;4.13;;;40.50;63.60;;;;;;5012259;28;20034;-47
2023/07/09 08:14:10;;;;;;;7.18;3.65;;;40.40;63.10;;;;;;5012047;28;20080;-48
2023/07/09 08:16:35;;;;;;;9.13;3.90;;;40.70;62.50;;;;;;5011587;28;20080;-46
2023/07/09 08:19:01;;;;;;;6.63;4.15;;;40.60;62.10;;;;;;5012173;28;20482;-46
2023/07/09 08:21:27;;;;;;;6.18;3.72;;;40.60;62.80;;;;;;5011134;28;20537;-47
2023/07/09 08:23:52;;;;;;;8.45;4.28;;;39.90;62.10;;;;;;5012106;28;20030;-45
2023/07/09 08:26:18;;;;;;;4.95;3.60;;;39.70;62.60;;;;;;5011494;28;20351;-47
2023/07/09 08:28:43;;;;;;;7.28;4.20;;;39.50;63.00;;;;;;5012090;28;20415;-46
2023/07/09 08:31:09;;;;;;;8.02;3.67;;;39.10;63.30;;;;;;5012240;28;20025;-48
2023/07/09 08:33:35;;;;;;;4.57;3.75;;;38.70;63.90;;;;;;5011810;28;20026;-46
2023/07/09 08:36:00;;;;;;;8.02;3.75;;;38.70;64.30;;;;;;5011333;28;20133;-47
2023/07/09 08:38:26;;;;;;;8.85;4.18;;;38.50;64.20;;;;;;5011346;28;20026;-46
2023/07/09 08:41:00;;;;;;;5.85;3.75;;;38.10;64.60;;;;;;5012576;28;20037;-45
2023/07/09 08:43:35;;;;;;;6.30;4.03;;;38.00;66.10;;;;;;5012034;28;20037;-48
2023/07/09 08:46:07;;;;;;;9.18;4.10;;;37.70;65.50;;;;;;5011966;28;20057;-47
2023/07/09 08:48:35;;;;;;;6.18;4.03;;;37.30;66.40;;;;;;5012767;28;20508;-46
2023/07/09 08:51:13;;;;;;;5.28;4.00;;;37.20;67.30;;;;;;5011947;28;20026;-48
2023/07/09 08:53:46;;;;;;;21.50;3.92;;;37.00;67.50;;;;;;5011949;28;20030;-50
2023/07/09 08:56:13;;;;;;;5.00;3.90;;;36.30;68.10;;;;;;5011168;28;20026;-48
2023/07/09 08:58:40;;;;;;;8.27;3.67;;;35.80;68.80;;;;;;5011755;28;20445;-50
2023/07/09 09:01:17;;;;;;;11.80;4.60;;;35.80;69.70;;;;;;5011875;28;20460;-54
2023/07/09 09:03:52;;;;;;;7.07;4.32;;;35.90;68.90;;;;;;5011659;28;20030;-52
2023/07/09 09:06:21;;;;;;;10.20;4.25;;;36.00;68.50;;;;;;5011126;28;20041;-49
2023/07/09 09:09:11;;;;;;;10.07;5.00;;;35.80;69.10;;;;;;5011825;28;20088;-51
2023/07/09 09:11:45;;;;;;;8.88;4.18;;;35.60;69.40;;;;;;5011691;28;20102;-50
2023/07/09 09:14:26;;;;;;;8.10;4.80;;;35.60;70.20;;;;;;5010274;28;20093;-47
2023/07/09 09:16:53;;;;;;;11.30;4.32;;;35.80;69.70;;;;;;5011140;28;20129;-46
2023/07/09 09:19:25;;;;;;;6.32;4.18;;;36.00;69.10;;;;;;5011732;28;20029;-46
2023/07/09 09:21:57;;;;;;;6.57;4.25;;;36.10;67.80;;;;;;5011658;28;20497;-49
2023/07/09 09:24:31;;;;;;;4.95;4.00;;;36.20;68.50;;;;;;5011608;28;20056;-48
2023/07/09 09:26:58;;;;;;;7.65;4.25;;;36.20;68.10;;;;;;5010794;28;20054;-52
2023/07/09 09:29:25;;;;;;;5.82;4.43;;;36.00;67.90;;;;;;5011330;28;20367;-51
2023/07/09 09:31:57;;;;;;;9.50;4.53;;;35.70;68.30;;;;;;5012770;28;20401;-51
2023/07/09 09:34:27;;;;;;;4.75;3.60;;;35.70;69.10;;;;;;5015432;28;20421;-48
2023/07/09 09:36:53;;;;;;;8.45;4.72;;;35.80;68.60;;;;;;5014716;28;20026;-49
2023/07/09 09:39:19;;;;;;;8.65;4.30;;;35.90;68.50;;;;;;5014246;28;20037;-48
2023/07/09 09:41:46;;;;;;;7.05;4.50;;;35.80;68.60;;;;;;5015149;28;20029;-47
2023/07/09 09:44:26;;;;;;;6.28;4.28;;;35.80;69.30;;;;;;5014876;28;20037;-53
2023/07/09 09:46:51;;;;;;;4.70;3.85;;;35.60;68.40;;;;;;5012972;28;20447;-48
2023/07/09 09:49:17;;;;;;;14.30;4.88;;;35.60;69.10;;;;;;5015000;28;20137;-50
2023/07/09 09:51:45;;;;;;;15.05;5.82;;;35.50;68.50;;;;;;5013558;28;20030;-48
2023/07/09 09:54:20;;;;;;;5.03;3.95;;;35.40;69.40;;;;;;5014642;28;20037;-48
2023/07/09 09:56:49;;;;;;;9.93;4.68;;;35.50;68.90;;;;;;5014232;28;20021;-50
2023/07/09 09:59:30;;;;;;;9.75;4.47;;;35.40;68.70;;;;;;5014786;28;20020;-50
2023/07/09 10:02:02;;;;;;;7.93;4.43;;;35.10;69.60;;;;;;5014793;28;20569;-50
2023/07/09 10:04:28;;;;;;;7.50;3.88;;;35.10;69.80;;;;;;5014757;28;20033;-51
2023/07/09 10:06:59;;;;;;;8.30;4.40;;;35.00;69.90;;;;;;5014436;28;20026;-48
2023/07/09 10:09:30;;;;;;;4.57;4.10;;;34.80;70.80;;;;;;5014964;28;20389;-49
2023/07/09 10:12:13;;;;;;;5.43;4.30;;;34.70;69.80;;;;;;5014839;28;20029;-48
2023/07/09 10:14:49;;;;;;;9.43;4.07;;;34.70;69.40;;;;;;5014659;28;20556;-48
2023/07/09 10:17:56;;;;;;;7.75;4.47;;;34.40;69.60;;;;;;5013919;28;20022;-47
2023/07/09 10:20:31;;;;;;;5.57;4.20;;;34.30;70.10;;;;;;5006186;28;20117;-50
2023/07/09 10:23:22;;;;;;;4.75;3.97;;;34.00;71.20;;;;;;5015045;28;20325;-49
2023/07/09 10:25:51;;;;;;;9.43;4.25;;;34.10;70.80;;;;;;5013653;28;20030;-49
2023/07/09 10:28:28;;;;;;;9.88;4.90;;;34.10;71.00;;;;;;5014327;28;20493;-47
2023/07/09 10:31:09;;;;;;;6.43;3.97;;;34.10;71.30;;;;;;5014374;28;20029;-47
2023/07/09 10:34:04;;;;;;;6.20;3.60;;;34.00;72.50;;;;;;5014288;28;20121;-46
2023/07/09 10:36:52;;;;;;;5.95;4.03;;;33.90;71.60;;;;;;5013645;28;20014;-48
2023/07/09 10:39:32;;;;;;;8.20;3.88;;;33.90;72.60;;;;;;5013184;28;20041;-46
2023/07/09 10:42:00;;;;;;;9.40;3.78;;;34.00;71.20;;;;;;5014130;28;20026;-46
2023/07/09 10:44:34;;;;;;;7.00;3.63;;;34.00;71.00;;;;;;5012474;28;20498;-49
2023/07/09 10:47:09;;;;;;;;;;;33.90;69.80;;;;;;5013632;28;20025;-52
2023/07/09 10:49:39;;;;;;;5.28;3.30;;;33.90;69.30;;;;;;5013827;28;19912;-47
2023/07/09 10:52:25;;;;;;;6.00;3.65;;;33.80;69.20;;;;;;5013865;28;20033;-47
2023/07/09 10:54:56;;;;;;;5.15;3.70;;;33.70;69.90;;;;;;5013645;28;20033;-46
2023/07/09 10:57:58;;;;;;;4.30;3.92;;;33.70;70.10;;;;;;5013118;28;20505;-47
2023/07/09 11:00:39;;;;;;;3.92;3.53;;;33.70;70.50;;;;;;5006900;28;20509;-47
2023/07/09 11:03:18;;;;;;;9.18;4.22;;;33.70;71.00;;;;;;5013753;28;20025;-47
2023/07/09 11:05:45;;;;;;;6.82;4.00;;;33.80;70.00;;;;;;5013378;28;20045;-46
2023/07/09 11:08:36;;;;;;;5.40;3.47;;;33.70;69.90;;;;;;5013445;28;20344;-51
2023/07/09 11:11:10;;;;;;;9.30;3.78;;;33.70;69.50;;;;;;5013477;28;20030;-49
2023/07/09 11:13:43;;;;;;;;;;;33.60;69.20;;;;;;5013577;28;20041;-51
2023/07/09 11:16:14;;;;;;;7.70;4.03;;;33.50;70.10;;;;;;5012806;28;19906;-47
2023/07/09 11:18:39;;;;;;;13.30;3.63;;;33.40;69.70;;;;;;5013538;28;20515;-50
2023/07/09 11:21:13;;;;;;;10.00;3.58;;;33.50;69.50;;;;;;5013312;28;20113;-53
2023/07/09 11:23:44;;;;;;;6.53;3.72;;;33.50;69.00;;;;;;5012989;28;20092;-50
2023/07/09 11:26:13;;;;;;;9.40;3.72;;;33.50;69.70;;;;;;5012629;28;20022;-49
2023/07/09 11:28:40;;;;;;;7.78;3.65;;;33.50;68.70;;;;;;5013285;28;20026;-46
2023/07/09 11:31:08;;;;;;;5.40;4.00;;;33.60;69.00;;;;;;5013124;28;20490;-49
2023/07/09 11:33:43;;;;;;;5.60;3.20;;;33.60;68.40;;;;;;5013301;28;20026;-49
2023/07/09 11:36:12;;;;;;;7.88;3.72;;;33.60;69.00;;;;;;5011331;28;20018;-49
2023/07/09 11:38:46;;;;;;;4.30;3.42;;;33.60;66.70;;;;;;5011735;28;20100;-45
2023/07/09 11:41:41;;;;;;;7.20;3.22;;;33.60;66.80;;;;;;5013179;28;20021;-46
2023/07/09 11:44:31;;;;;;;5.90;3.50;;;33.70;68.00;;;;;;5013290;28;20045;-46
2023/07/09 11:47:14;;;;;;;9.93;3.58;;;33.60;68.70;;;;;;5012451;28;20398;-50
2023/07/09 11:49:58;;;;;;;7.32;4.70;;;33.70;67.90;;;;;;5012870;28;20033;-47
2023/07/09 11:52:59;;;;;;;3.95;3.22;;;33.80;66.90;;;;;;5012566;28;20018;-46
2023/07/09 11:55:40;;;;;;;5.22;3.17;;;33.80;66.30;;;;;;5012087;28;20104;-44
2023/07/09 11:58:10;;;;;;;7.63;4.45;;;33.80;66.10;;;;;;5012415;28;20557;-46
2023/07/09 12:00:45;;;;;;;5.65;3.42;;;33.80;64.40;;;;;;5012478;28;20038;-48
2023/07/09 12:03:28;;;;;;;5.22;3.17;;;33.80;64.60;;;;;;5012450;28;20030;-50
2023/07/09 12:05:56;;;;;;;8.77;3.30;;;33.80;65.50;;;;;;5011583;28;20033;-45
2023/07/09 12:08:27;;;;;;;6.38;3.35;;;33.80;66.50;;;;;;5010973;28;20030;-46
2023/07/09 12:10:53;;;;;;;8.25;3.72;;;33.80;66.10;;;;;;5012436;28;20105;-44
2023/07/09 12:13:18;;;;;;;8.18;3.55;;;33.90;65.50;;;;;;5038289;23;20048;-55
2023/07/09 12:15:44;;;;;;;4.03;2.88;;;33.90;65.00;;;;;;5030794;28;20027;-51
2023/07/09 12:18:15;;;;;;;7.50;3.60;;;33.90;64.10;;;;;;5030812;28;20409;-56
2023/07/09 12:20:52;;;;;;;4.55;3.00;;;33.90;63.90;;;;;;5032054;28;20021;-53
2023/07/09 12:23:28;;;;;;;7.30;3.42;;;33.80;64.90;;;;;;5031971;28;20087;-55
2023/07/09 12:25:54;;;;;;;5.28;3.65;;;33.90;65.10;;;;;;5031129;28;20489;-54
2023/07/09 12:28:21;;;;;;;9.50;3.30;;;34.00;65.40;;;;;;5031762;28;20025;-50
2023/07/09 12:30:49;;;;;;;5.13;3.28;;;34.10;64.40;;;;;;5031758;28;20378;-52
2023/07/09 12:33:19;;;;;;;6.50;3.15;;;34.10;64.10;;;;;;5031809;28;20472;-54
2023/07/09 12:35:47;;;;;;;5.20;3.15;;;34.20;63.40;;;;;;5031096;28;20097;-54
2023/07/09 12:38:20;;;;;;;8.93;3.53;;;34.20;63.20;;;;;;5031084;28;20025;-53
2023/07/09 12:40:47;;;;;;;6.45;3.42;;;34.20;63.30;;;;;;5031956;28;20021;-53
2023/07/09 12:43:13;;;;;;;6.75;3.55;;;34.20;63.40;;;;;;5030456;28;20059;-54
2023/07/09 12:45:39;;;;;;;5.40;3.40;;;34.40;63.90;;;;;;5031324;28;20057;-54
2023/07/09 12:48:05;;;;;;;3.55;3.20;;;34.30;63.70;;;;;;5031162;28;20079;-57
2023/07/09 12:50:32;;;;;;;6.15;3.63;;;34.40;63.00;;;;;;5031675;28;20057;-53
2023/07/09 12:53:13;;;;;;;14.30;3.53;;;34.40;61.90;;;;;;5031596;28;20405;-53
2023/07/09 12:55:41;;;;;;;7.75;3.65;;;34.40;62.40;;;;;;5031290;28;20021;-55